Brisbin, PA (16620)

07:32 PM EDT die 25o October, anno 2014 (GMT -0400)
South Philipsburg | Change Station
CLOSE
Current Station
Personal Weather Stations
Location: Philipsburg, PA
Elevation: 1444 ft
Nearby Weather Stations

Elev 1444 ft 40.89 °N, 78.22 °W | Updated 2 minutes ago

Partialiter Nubila
Partialiter Nubila
59.6 °F
Feels Like 59.6 °F
N
1.0
Ventus Variabilis Ventus from Inter Austrum et Zephyrum
Gusts 1.0 mph

Hodie
High -- | Low -- °F
--% Chance of Precip.
Yesterday
High -- | Low -- °F
Precip. -- in
7:35 AM 6:18 PM
Waxing Crescent, 5% visible
Pressio 29.70 in
Visibilitas 10.0 milia passuum
Clouds Few 4000 ft
Few 5000 ft
Frigus in quo Ros apparet 51 °F
Umor 73%
Rainfall 0.00 in
Snow Depth Not available.
UV 0 out of 12
Pollen 1.20 out of 12
Air Quality Not available.
Flu Activity Sporadic
METAR KFIG 252254Z AUTO 23010KT 10SM FEW040 FEW050 16/09 A2969 RMK AO2 SLP055 T01560089

More Conditions Fewer Conditions

Pressio 29.70 in
Visibilitas 10.0 milia passuum
Clouds Few 4000 ft
Few 5000 ft
Frigus in quo Ros apparet 51 °F
Umor 73%
Rainfall 0.00 in
Snow Depth Not available.
UV 0 out of 12
Pollen 1.20 out of 12
Air Quality Not available.
Flu Activity Sporadic
METAR KFIG 252254Z AUTO 23010KT 10SM FEW040 FEW050 16/09 A2969 RMK AO2 SLP055 T01560089

More Conditions Fewer Conditions

10-Day Weather Forecast

Almanac

Astronomy

Oct. 25, 2014 Rise Set
Actual Time 7:35 AM EDT 6:18 PM EDT
Civil Twilight 7:07 AM EDT 6:46 PM EDT
Nautical Twilight 6:35 AM EDT 7:18 PM EDT
Astronomical Twilight 6:03 AM EDT 7:50 PM EDT
Moon 9:13 AM EDT 7:39 PM EDT
Length Of Visible Light 11h 38m
Length of Day
10h 42m
Tomorrow will be 2m 30s shorter.
Waxing Crescent, 5% of the Moon is Illuminated
Hodie
Waxing Crescent
Oct 30
First Quarter
Nov 6
Full
Nov 14
Last Quarter
Nov 22
New

Today's Extremes

State Highs State Lows

Community

WunderPhotos

Upload Photos

1,765,034 photos uploaded!

Nearby

Snow Depth

Station Depth Elevation
No new snow has been reported.

Earthquake Activity

City Distance Mag. Time & Date
No recent earthquake activity has been reported nearby.
Minimum magnitude displayed is 2.5.

Coastal Water Temperatures

Locus Calor
No Stations Reporting

Nearby Weather Stations